Time;durP1;ratioP1;P1;durP2;ratioP2;P2;SDS_P1;SDS_P2;PMS_P1;PMS_P2;Temp;Humidity;BMP_temperature;BMP_pressure;BME280_temperature;BME280_humidity;BME280_pressure;Samples;Min_cycle;Max_cycle;Signal;HPM_P1;HPM_P2
2022/02/21 00:00:22;;;;;;;8.57;1.77;;;;;;;;;;2064154;28;20046;-69
2022/02/21 00:01:41;;;;;;;6.80;1.90;;;;;;;;;;2067643;28;20042;-68
2022/02/21 00:03:00;;;;;;;7.93;1.52;;;;;;;;;;2067354;28;20030;-70
2022/02/21 00:04:19;;;;;;;13.75;1.90;;;;;;;;;;2067004;28;20038;-69
2022/02/21 00:05:38;;;;;;;6.30;2.13;;;;;;;;;;2065092;28;20484;-70
2022/02/21 00:06:57;;;;;;;10.20;1.83;;;;;;;;;;2068103;28;20495;-69
2022/02/21 00:08:16;;;;;;;9.82;1.92;;;;;;;;;;2068220;28;20504;-70
2022/02/21 00:09:35;;;;;;;12.48;2.83;;;;;;;;;;2064799;28;20042;-71
2022/02/21 00:10:54;;;;;;;8.57;2.00;;;;;;;;;;2065967;28;20042;-71
2022/02/21 00:12:14;;;;;;;6.60;1.80;;;;;;;;;;2067023;28;20018;-70
2022/02/21 00:13:33;;;;;;;12.68;1.90;;;;;;;;;;2067895;28;20026;-71
2022/02/21 00:14:52;;;;;;;6.85;1.80;;;;;;;;;;2067797;28;20030;-71
2022/02/21 00:16:11;;;;;;;8.07;1.70;;;;;;;;;;2067260;28;20030;-71
2022/02/21 00:17:31;;;;;;;10.25;2.17;;;;;;;;;;2067562;28;20484;-71
2022/02/21 00:18:49;;;;;;;6.07;2.03;;;;;;;;;;2066892;28;20498;-71
2022/02/21 00:20:09;;;;;;;9.18;2.00;;;;;;;;;;2065717;28;20042;-70
2022/02/21 00:21:29;;;;;;;14.18;1.77;;;;;;;;;;2067695;28;20034;-69
2022/02/21 00:22:48;;;;;;;7.85;1.77;;;;;;;;;;2067092;28;20112;-70
2022/02/21 00:24:07;;;;;;;8.98;1.95;;;;;;;;;;2067820;28;20030;-71
2022/02/21 00:25:26;;;;;;;8.10;2.15;;;;;;;;;;2066140;28;20046;-68
2022/02/21 00:26:45;;;;;;;5.28;1.77;;;;;;;;;;2068024;28;20364;-70
2022/02/21 00:28:04;;;;;;;10.20;1.95;;;;;;;;;;2067539;28;20453;-72
2022/02/21 00:29:23;;;;;;;8.75;1.95;;;;;;;;;;2067128;28;20027;-72
2022/02/21 00:30:42;;;;;;;13.27;2.28;;;;;;;;;;2067437;28;20466;-69
2022/02/21 00:32:01;;;;;;;10.52;2.45;;;;;;;;;;2067298;28;20031;-70
2022/02/21 00:33:20;;;;;;;11.07;2.65;;;;;;;;;;2067267;28;20035;-69
2022/02/21 00:34:39;;;;;;;9.43;2.22;;;;;;;;;;2067917;28;20034;-70
2022/02/21 00:35:59;;;;;;;5.13;1.70;;;;;;;;;;2067120;28;20084;-71
2022/02/21 00:37:18;;;;;;;11.93;1.83;;;;;;;;;;2068066;28;20042;-69
2022/02/21 00:38:37;;;;;;;10.13;1.90;;;;;;;;;;2067556;28;20445;-70
2022/02/21 00:39:56;;;;;;;4.47;1.33;;;;;;;;;;2070907;28;20034;-69
2022/02/21 00:41:15;;;;;;;21.48;2.30;;;;;;;;;;2069753;28;20045;-69
2022/02/21 00:42:34;;;;;;;10.93;2.15;;;;;;;;;;2067219;28;20479;-67
2022/02/21 00:43:52;;;;;;;8.63;1.52;;;;;;;;;;2067653;28;20062;-69
2022/02/21 00:45:11;;;;;;;12.90;2.60;;;;;;;;;;2066912;28;20531;-69
2022/02/21 00:46:30;;;;;;;6.53;1.55;;;;;;;;;;2067399;28;20059;-69
2022/02/21 00:47:49;;;;;;;12.45;2.20;;;;;;;;;;2067950;28;20038;-69
2022/02/21 00:49:08;;;;;;;7.25;1.83;;;;;;;;;;2068061;28;20022;-69
2022/02/21 00:50:27;;;;;;;4.63;1.85;;;;;;;;;;2064903;28;20512;-69
2022/02/21 00:51:45;;;;;;;6.63;1.63;;;;;;;;;;2068034;28;20034;-69
2022/02/21 00:53:04;;;;;;;8.07;2.10;;;;;;;;;;2067365;28;20022;-69
2022/02/21 00:54:23;;;;;;;8.35;2.00;;;;;;;;;;2067134;28;20423;-69
2022/02/21 00:55:42;;;;;;;6.10;1.20;;;;;;;;;;2064646;28;20117;-70
2022/02/21 00:57:02;;;;;;;5.85;1.80;;;;;;;;;;2070608;28;20026;-70
2022/02/21 00:58:20;;;;;;;6.03;1.58;;;;;;;;;;2070506;28;20049;-70
2022/02/21 00:59:39;;;;;;;8.98;2.05;;;;;;;;;;2067890;28;20030;-70
2022/02/21 01:00:58;;;;;;;11.60;1.73;;;;;;;;;;2067748;28;20393;-72
2022/02/21 01:02:17;;;;;;;9.30;2.28;;;;;;;;;;2063956;28;20030;-71
2022/02/21 01:03:36;;;;;;;6.47;1.40;;;;;;;;;;2066810;28;20026;-70
2022/02/21 01:04:55;;;;;;;8.63;2.22;;;;;;;;;;2066953;28;20105;-70
2022/02/21 01:06:17;;;;;;;8.65;1.83;;;;;;;;;;2067302;28;20081;-69
2022/02/21 01:07:35;;;;;;;5.55;1.67;;;;;;;;;;2067668;28;20026;-70
2022/02/21 01:08:55;;;;;;;12.65;2.08;;;;;;;;;;2067470;28;20117;-70
2022/02/21 01:10:13;;;;;;;9.88;1.88;;;;;;;;;;2066931;28;20034;-70
2022/02/21 01:11:32;;;;;;;8.25;1.50;;;;;;;;;;2067177;28;20030;-71
2022/02/21 01:12:51;;;;;;;7.25;1.70;;;;;;;;;;2065129;28;20129;-70
2022/02/21 01:14:10;;;;;;;6.22;1.77;;;;;;;;;;2065752;28;20449;-70
2022/02/21 01:15:29;;;;;;;5.72;1.63;;;;;;;;;;2067279;28;20030;-71
2022/02/21 01:16:49;;;;;;;12.00;2.10;;;;;;;;;;2067710;28;20480;-69
2022/02/21 01:18:08;;;;;;;11.00;1.85;;;;;;;;;;2066321;28;20487;-70
2022/02/21 01:19:27;;;;;;;11.48;2.60;;;;;;;;;;2066906;28;20030;-71
2022/02/21 01:20:46;;;;;;;9.73;2.45;;;;;;;;;;2065777;28;20038;-68
2022/02/21 01:22:07;;;;;;;14.63;3.15;;;;;;;;;;2066010;28;20030;-68
2022/02/21 01:23:26;;;;;;;13.55;2.50;;;;;;;;;;2067211;28;20022;-70
2022/02/21 01:24:45;;;;;;;7.53;2.45;;;;;;;;;;2066988;28;20026;-70
2022/02/21 01:26:04;;;;;;;9.27;2.35;;;;;;;;;;2067363;28;20049;-70
2022/02/21 01:27:23;;;;;;;11.40;2.63;;;;;;;;;;2066234;28;20512;-70
2022/02/21 01:28:41;;;;;;;7.78;2.60;;;;;;;;;;2066932;28;20034;-70
2022/02/21 01:30:01;;;;;;;8.60;1.80;;;;;;;;;;2068589;28;20022;-71
2022/02/21 01:31:20;;;;;;;12.60;2.78;;;;;;;;;;2065846;28;20062;-70
2022/02/21 01:32:40;;;;;;;7.57;1.92;;;;;;;;;;2065821;28;20026;-71
2022/02/21 01:33:59;;;;;;;10.02;2.50;;;;;;;;;;2066346;28;20022;-70
2022/02/21 01:35:18;;;;;;;12.75;2.58;;;;;;;;;;2067100;28;20030;-70
2022/02/21 01:36:37;;;;;;;6.18;1.63;;;;;;;;;;2064099;28;20037;-69
2022/02/21 01:37:57;;;;;;;11.43;2.47;;;;;;;;;;2064272;28;20483;-69
2022/02/21 01:39:16;;;;;;;9.18;2.20;;;;;;;;;;2066892;28;20062;-70
2022/02/21 01:40:35;;;;;;;14.75;2.78;;;;;;;;;;2066451;28;20034;-70
2022/02/21 01:41:54;;;;;;;13.38;2.60;;;;;;;;;;2066045;28;20034;-70
2022/02/21 01:43:13;;;;;;;11.20;2.35;;;;;;;;;;2063911;28;20496;-69
2022/02/21 01:44:42;;;;;;;9.48;2.35;;;;;;;;;;2067551;28;20042;-70
2022/02/21 01:46:01;;;;;;;7.35;2.35;;;;;;;;;;2067148;28;20026;-69
2022/02/21 01:47:21;;;;;;;10.23;2.13;;;;;;;;;;2066746;28;20042;-69
2022/02/21 01:48:40;;;;;;;7.28;2.13;;;;;;;;;;2067464;28;20408;-70
2022/02/21 01:49:59;;;;;;;8.02;2.72;;;;;;;;;;2067919;28;20038;-70
2022/02/21 01:51:17;;;;;;;9.85;1.80;;;;;;;;;;2066414;28;20026;-69
2022/02/21 01:52:37;;;;;;;12.30;2.30;;;;;;;;;;2066839;28;20022;-70
2022/02/21 01:53:56;;;;;;;11.35;2.08;;;;;;;;;;2067945;28;20493;-71
2022/02/21 01:55:15;;;;;;;9.48;2.20;;;;;;;;;;2066918;28;20030;-68
2022/02/21 01:56:35;;;;;;;9.00;2.00;;;;;;;;;;2066524;28;20054;-69
2022/02/21 01:57:54;;;;;;;8.98;1.90;;;;;;;;;;2065677;28;20478;-69
2022/02/21 01:59:13;;;;;;;6.30;2.00;;;;;;;;;;2068849;28;20023;-69
2022/02/21 02:00:32;;;;;;;6.85;1.77;;;;;;;;;;2067086;28;20037;-69
2022/02/21 02:01:51;;;;;;;13.10;2.63;;;;;;;;;;2068924;28;20041;-70
2022/02/21 02:03:11;;;;;;;14.07;2.75;;;;;;;;;;2067858;28;20023;-70
2022/02/21 02:04:30;;;;;;;8.45;2.13;;;;;;;;;;2067015;28;20030;-70
2022/02/21 02:05:49;;;;;;;5.93;1.73;;;;;;;;;;2067893;28;20104;-69
2022/02/21 02:07:11;;;;;;;8.82;2.05;;;;;;;;;;2067818;28;20447;-70
2022/02/21 02:08:29;;;;;;;9.10;2.28;;;;;;;;;;2065381;28;20477;-68
2022/02/21 02:09:48;;;;;;;9.35;2.00;;;;;;;;;;2064890;28;20112;-68
2022/02/21 02:11:07;;;;;;;10.38;1.95;;;;;;;;;;2063349;28;20089;-69
2022/02/21 02:12:26;;;;;;;3.80;2.42;;;;;;;;;;2066606;28;20405;-69
2022/02/21 02:13:48;;;;;;;10.50;2.90;;;;;;;;;;2068079;28;20034;-69
2022/02/21 02:15:12;;;;;;;11.60;1.83;;;;;;;;;;2068399;28;20034;-70
2022/02/21 02:16:31;;;;;;;7.70;1.70;;;;;;;;;;2069110;28;20023;-69
2022/02/21 02:17:50;;;;;;;10.45;2.30;;;;;;;;;;2068310;28;20035;-70
2022/02/21 02:19:09;;;;;;;8.52;2.03;;;;;;;;;;2068267;28;20026;-69
2022/02/21 02:20:28;;;;;;;15.13;2.20;;;;;;;;;;2068503;28;20037;-70
2022/02/21 02:21:51;;;;;;;5.07;1.67;;;;;;;;;;2069197;28;20034;-69
2022/02/21 02:23:09;;;;;;;9.05;2.13;;;;;;;;;;2070026;28;20033;-69
2022/02/21 02:24:28;;;;;;;5.97;2.05;;;;;;;;;;2068112;28;20038;-68
2022/02/21 02:25:48;;;;;;;11.15;2.20;;;;;;;;;;2069010;28;20034;-68
2022/02/21 02:27:10;;;;;;;8.80;2.10;;;;;;;;;;2067120;28;20054;-69
2022/02/21 02:28:29;;;;;;;6.95;1.60;;;;;;;;;;2068846;28;20026;-69
2022/02/21 02:29:50;;;;;;;7.65;2.40;;;;;;;;;;2068792;28;20137;-69
2022/02/21 02:31:09;;;;;;;6.28;1.50;;;;;;;;;;2068647;28;20384;-69
2022/02/21 02:32:29;;;;;;;6.55;1.67;;;;;;;;;;2067503;28;20498;-70
2022/02/21 02:33:48;;;;;;;7.10;2.15;;;;;;;;;;2068119;28;20018;-69
2022/02/21 02:35:07;;;;;;;9.82;2.00;;;;;;;;;;2067589;28;20396;-69
2022/02/21 02:36:27;;;;;;;6.30;1.90;;;;;;;;;;2068693;28;20442;-68
2022/02/21 02:37:46;;;;;;;5.45;1.70;;;;;;;;;;2067084;28;20038;-69
2022/02/21 02:39:05;;;;;;;5.60;1.88;;;;;;;;;;2069101;28;20042;-69
2022/02/21 02:40:24;;;;;;;5.38;1.80;;;;;;;;;;2069431;28;20117;-69
2022/02/21 02:41:44;;;;;;;9.50;2.00;;;;;;;;;;2068789;28;20113;-70
2022/02/21 02:43:03;;;;;;;6.20;1.95;;;;;;;;;;2067194;28;20065;-69
2022/02/21 02:44:22;;;;;;;5.13;2.17;;;;;;;;;;2068616;28;20735;-69
2022/02/21 02:45:44;;;;;;;5.10;1.88;;;;;;;;;;2067951;28;20113;-68
2022/02/21 02:47:06;;;;;;;7.75;2.15;;;;;;;;;;2067356;28;20026;-70
2022/02/21 02:48:25;;;;;;;8.63;2.00;;;;;;;;;;2066436;28;20038;-70
2022/02/21 02:49:44;;;;;;;9.52;2.25;;;;;;;;;;2068221;28;20029;-70
2022/02/21 02:51:03;;;;;;;6.65;2.20;;;;;;;;;;2067948;28;20046;-71
2022/02/21 02:52:22;;;;;;;4.18;1.75;;;;;;;;;;2067545;28;20023;-70
2022/02/21 02:53:41;;;;;;;5.43;1.63;;;;;;;;;;2065927;28;20026;-70
2022/02/21 02:55:00;;;;;;;2.10;1.30;;;;;;;;;;2069019;28;20105;-70
2022/02/21 02:56:19;;;;;;;5.35;1.80;;;;;;;;;;2067647;28;20026;-69
2022/02/21 02:57:38;;;;;;;4.88;1.55;;;;;;;;;;2067024;28;20026;-70
2022/02/21 02:58:57;;;;;;;10.65;2.40;;;;;;;;;;2068043;28;20341;-70
2022/02/21 03:00:17;;;;;;;10.13;1.80;;;;;;;;;;2067774;28;20038;-69
2022/02/21 03:01:36;;;;;;;3.83;1.70;;;;;;;;;;2068123;28;20045;-70
2022/02/21 03:02:55;;;;;;;13.40;2.08;;;;;;;;;;2067200;28;20080;-69
2022/02/21 03:04:14;;;;;;;5.25;2.30;;;;;;;;;;2068191;28;20026;-70
2022/02/21 03:05:33;;;;;;;2.90;1.70;;;;;;;;;;2067355;28;20465;-69
2022/02/21 03:06:52;;;;;;;3.50;1.70;;;;;;;;;;2068277;28;20030;-69
2022/02/21 03:08:11;;;;;;;5.80;1.58;;;;;;;;;;2067081;28;20023;-70
2022/02/21 03:09:30;;;;;;;5.57;1.77;;;;;;;;;;2067210;28;20030;-69
2022/02/21 03:10:49;;;;;;;5.93;1.80;;;;;;;;;;2067218;28;20030;-70
2022/02/21 03:12:08;;;;;;;3.67;1.50;;;;;;;;;;2067327;28;20026;-71
2022/02/21 03:13:27;;;;;;;2.03;1.42;;;;;;;;;;2065514;28;20038;-70
2022/02/21 03:14:47;;;;;;;4.03;1.70;;;;;;;;;;2070656;28;20061;-67
2022/02/21 03:16:06;;;;;;;3.47;1.42;;;;;;;;;;2071770;28;20480;-70
2022/02/21 03:17:25;;;;;;;6.18;1.80;;;;;;;;;;2068564;28;20034;-70
2022/02/21 03:18:44;;;;;;;5.30;1.67;;;;;;;;;;2068405;28;20027;-69
2022/02/21 03:20:03;;;;;;;6.25;2.00;;;;;;;;;;2068740;28;20096;-70
2022/02/21 03:21:22;;;;;;;7.00;2.10;;;;;;;;;;2068467;28;20034;-70
2022/02/21 03:22:44;;;;;;;7.10;1.77;;;;;;;;;;2067274;28;20459;-69
2022/02/21 03:24:03;;;;;;;5.63;1.60;;;;;;;;;;2064483;28;20038;-69
2022/02/21 03:25:22;;;;;;;7.80;1.90;;;;;;;;;;2067383;28;20047;-70
2022/02/21 03:26:41;;;;;;;5.03;1.60;;;;;;;;;;2068844;28;20061;-70
2022/02/21 03:28:00;;;;;;;6.07;1.77;;;;;;;;;;2066590;28;20031;-69
2022/02/21 03:29:19;;;;;;;4.57;1.70;;;;;;;;;;2067415;28;20033;-70
2022/02/21 03:30:38;;;;;;;5.47;1.52;;;;;;;;;;2068134;28;20049;-70
2022/02/21 03:31:57;;;;;;;7.10;1.98;;;;;;;;;;2067117;28;20057;-70
2022/02/21 03:33:16;;;;;;;4.40;1.60;;;;;;;;;;2066339;28;20473;-69
2022/02/21 03:34:35;;;;;;;6.35;1.63;;;;;;;;;;2067790;28;20101;-69
2022/02/21 03:35:54;;;;;;;4.97;1.83;;;;;;;;;;2068616;28;20026;-69
2022/02/21 03:37:14;;;;;;;2.00;1.65;;;;;;;;;;2068116;28;20367;-69
2022/02/21 03:38:33;;;;;;;5.30;2.08;;;;;;;;;;2067049;28;20030;-68
2022/02/21 03:39:52;;;;;;;3.63;1.70;;;;;;;;;;2067841;28;20022;-69
2022/02/21 03:41:14;;;;;;;5.22;1.23;;;;;;;;;;2067829;28;20431;-70
2022/02/21 03:42:33;;;;;;;6.28;1.85;;;;;;;;;;2068437;28;20038;-69
2022/02/21 03:43:52;;;;;;;4.72;1.83;;;;;;;;;;2067241;28;20038;-68
2022/02/21 03:45:14;;;;;;;3.53;1.70;;;;;;;;;;2068543;28;20038;-71
2022/02/21 03:46:36;;;;;;;3.28;1.58;;;;;;;;;;2067543;28;20026;-70
2022/02/21 03:47:55;;;;;;;4.20;1.60;;;;;;;;;;2067084;28;20508;-69
2022/02/21 03:49:14;;;;;;;5.72;1.65;;;;;;;;;;2067335;28;20034;-69
2022/02/21 03:50:33;;;;;;;1.95;1.45;;;;;;;;;;2067831;28;20068;-70
2022/02/21 03:51:52;;;;;;;2.97;1.30;;;;;;;;;;2067750;28;20038;-69
2022/02/21 03:53:14;;;;;;;1.90;1.30;;;;;;;;;;2067669;28;20031;-70
2022/02/21 03:54:33;;;;;;;6.57;1.80;;;;;;;;;;2072074;28;20054;-70
2022/02/21 03:55:51;;;;;;;6.15;1.50;;;;;;;;;;2066648;28;20038;-70
2022/02/21 03:57:10;;;;;;;2.33;1.30;;;;;;;;;;2067525;28;20030;-68
2022/02/21 03:58:29;;;;;;;1.85;1.13;;;;;;;;;;2066455;28;20034;-70
2022/02/21 03:59:49;;;;;;;1.90;1.33;;;;;;;;;;2067299;28;20427;-69
2022/02/21 04:01:08;;;;;;;2.38;1.20;;;;;;;;;;2066610;28;20030;-70
2022/02/21 04:02:27;;;;;;;2.55;1.02;;;;;;;;;;2068666;28;20496;-70
2022/02/21 04:03:46;;;;;;;1.35;1.13;;;;;;;;;;2068037;28;20474;-69
2022/02/21 04:05:05;;;;;;;2.70;1.40;;;;;;;;;;2068224;28;20062;-70
2022/02/21 04:06:24;;;;;;;2.90;0.70;;;;;;;;;;2067690;28;20488;-69
2022/02/21 04:07:44;;;;;;;2.80;1.30;;;;;;;;;;2068537;28;20023;-69
2022/02/21 04:09:03;;;;;;;1.70;0.85;;;;;;;;;;2066822;28;21042;-70
2022/02/21 04:10:22;;;;;;;4.95;1.20;;;;;;;;;;2067919;28;20045;-70
2022/02/21 04:11:41;;;;;;;1.67;0.90;;;;;;;;;;2068130;28;20030;-69
2022/02/21 04:13:00;;;;;;;0.85;0.70;;;;;;;;;;2066749;28;20026;-71
2022/02/21 04:14:19;;;;;;;1.98;1.45;;;;;;;;;;2066747;28;20031;-71
2022/02/21 04:15:38;;;;;;;2.85;0.98;;;;;;;;;;2067998;28;21157;-69
2022/02/21 04:16:57;;;;;;;2.15;1.00;;;;;;;;;;2068718;28;20030;-69
2022/02/21 04:18:16;;;;;;;2.08;0.90;;;;;;;;;;2067425;28;20442;-70
2022/02/21 04:19:35;;;;;;;2.00;1.00;;;;;;;;;;2066924;28;20129;-70
2022/02/21 04:20:54;;;;;;;3.90;0.70;;;;;;;;;;2067749;28;20026;-70
2022/02/21 04:22:14;;;;;;;4.90;1.20;;;;;;;;;;2067838;28;20022;-70
2022/02/21 04:23:33;;;;;;;2.92;1.10;;;;;;;;;;2068017;28;20030;-70
2022/02/21 04:24:52;;;;;;;2.85;0.90;;;;;;;;;;2067563;28;20132;-70
2022/02/21 04:26:11;;;;;;;1.60;0.90;;;;;;;;;;2067356;28;20065;-70
2022/02/21 04:27:37;;;;;;;2.13;0.90;;;;;;;;;;2067691;28;20449;-70
2022/02/21 04:28:56;;;;;;;2.55;0.90;;;;;;;;;;2066950;28;20042;-69
2022/02/21 04:30:16;;;;;;;4.22;0.95;;;;;;;;;;2067622;28;20058;-70
2022/02/21 04:31:35;;;;;;;2.33;0.80;;;;;;;;;;2063174;28;20032;-70
2022/02/21 04:32:54;;;;;;;2.60;1.10;;;;;;;;;;2068060;28;20500;-69
2022/02/21 04:34:13;;;;;;;0.80;0.80;;;;;;;;;;2067140;28;20512;-70
2022/02/21 04:35:32;;;;;;;1.48;0.80;;;;;;;;;;2066768;28;20472;-70
2022/02/21 04:36:51;;;;;;;2.45;1.10;;;;;;;;;;2068044;28;20492;-71
2022/02/21 04:38:12;;;;;;;2.28;0.90;;;;;;;;;;2067577;28;20038;-70
2022/02/21 04:39:31;;;;;;;2.83;1.20;;;;;;;;;;2066652;28;20026;-69
2022/02/21 04:40:51;;;;;;;2.10;1.05;;;;;;;;;;2067366;28;20496;-70
2022/02/21 04:42:10;;;;;;;3.55;1.30;;;;;;;;;;2067639;28;20039;-68
2022/02/21 04:43:29;;;;;;;1.60;0.80;;;;;;;;;;2067721;28;20038;-70
2022/02/21 04:44:48;;;;;;;1.67;1.10;;;;;;;;;;2067279;28;20038;-69
2022/02/21 04:46:07;;;;;;;1.85;0.73;;;;;;;;;;2066537;28;20030;-70
2022/02/21 04:47:26;;;;;;;1.23;1.13;;;;;;;;;;2066241;28;20403;-70
2022/02/21 04:48:45;;;;;;;1.08;0.73;;;;;;;;;;2068579;28;20026;-70
2022/02/21 04:50:06;;;;;;;0.90;0.80;;;;;;;;;;2066610;28;20101;-70
2022/02/21 04:51:25;;;;;;;0.98;0.85;;;;;;;;;;2069261;28;20029;-69
2022/02/21 04:52:43;;;;;;;1.52;0.75;;;;;;;;;;2068035;28;20026;-70
2022/02/21 04:54:03;;;;;;;0.68;0.63;;;;;;;;;;2067626;28;20018;-70
2022/02/21 04:55:22;;;;;;;0.80;0.68;;;;;;;;;;2066637;28;20459;-70
2022/02/21 04:56:41;;;;;;;1.27;0.80;;;;;;;;;;2066626;28;20030;-70
2022/02/21 04:58:00;;;;;;;1.02;0.73;;;;;;;;;;2067168;28;20038;-69
2022/02/21 04:59:19;;;;;;;1.10;0.70;;;;;;;;;;2067208;28;20030;-69
2022/02/21 05:00:38;;;;;;;1.27;0.77;;;;;;;;;;2067574;28;20042;-70
2022/02/21 05:02:00;;;;;;;0.82;0.57;;;;;;;;;;2066143;28;20030;-70
2022/02/21 05:03:19;;;;;;;0.77;0.50;;;;;;;;;;2065293;28;20037;-71
2022/02/21 05:04:37;;;;;;;0.80;0.50;;;;;;;;;;2067074;28;20041;-69
2022/02/21 05:05:56;;;;;;;0.60;0.50;;;;;;;;;;2067177;28;20066;-70
2022/02/21 05:07:15;;;;;;;0.90;0.57;;;;;;;;;;2066308;28;20446;-70
2022/02/21 05:08:34;;;;;;;0.73;0.50;;;;;;;;;;2069965;28;20030;-69
2022/02/21 05:09:53;;;;;;;0.90;0.65;;;;;;;;;;2066835;28;20141;-69
2022/02/21 05:11:11;;;;;;;0.30;0.30;;;;;;;;;;2069096;28;20034;-69
2022/02/21 05:12:31;;;;;;;0.95;0.57;;;;;;;;;;2067603;28;20492;-69
2022/02/21 05:13:49;;;;;;;1.02;0.40;;;;;;;;;;2067577;28;20030;-70
2022/02/21 05:15:09;;;;;;;1.08;0.60;;;;;;;;;;2068126;28;20026;-70
2022/02/21 05:16:28;;;;;;;0.30;0.30;;;;;;;;;;2066291;28;20026;-69
2022/02/21 05:17:48;;;;;;;0.73;0.28;;;;;;;;;;2066786;28;20038;-70
2022/02/21 05:19:07;;;;;;;0.90;0.30;;;;;;;;;;2066447;28;20026;-70
2022/02/21 05:20:27;;;;;;;0.98;0.40;;;;;;;;;;2065666;28;20042;-70
2022/02/21 05:21:46;;;;;;;2.05;0.30;;;;;;;;;;2066957;28;20031;-70
2022/02/21 05:23:05;;;;;;;1.00;0.40;;;;;;;;;;2067392;28;20022;-70
2022/02/21 05:24:23;;;;;;;0.52;0.30;;;;;;;;;;2067650;28;20030;-70
2022/02/21 05:25:42;;;;;;;0.47;0.30;;;;;;;;;;2064944;28;20058;-70
2022/02/21 05:27:01;;;;;;;1.85;0.20;;;;;;;;;;2065449;28;20109;-70
2022/02/21 05:28:20;;;;;;;1.00;0.30;;;;;;;;;;2066226;28;20105;-69
2022/02/21 05:29:39;;;;;;;0.40;0.20;;;;;;;;;;2067836;28;20105;-69
2022/02/21 05:30:58;;;;;;;1.25;0.25;;;;;;;;;;2066594;28;20030;-69
2022/02/21 05:32:17;;;;;;;0.60;0.30;;;;;;;;;;2067439;28;20027;-69
2022/02/21 05:33:36;;;;;;;1.23;0.10;;;;;;;;;;2068266;28;20027;-69
2022/02/21 05:34:55;;;;;;;1.10;0.40;;;;;;;;;;2067536;28;20026;-68
2022/02/21 05:36:14;;;;;;;0.30;0.30;;;;;;;;;;2067085;28;20105;-68
2022/02/21 05:37:33;;;;;;;0.20;0.20;;;;;;;;;;2063255;28;20034;-68
2022/02/21 05:38:52;;;;;;;0.40;0.30;;;;;;;;;;2065902;28;20074;-68
2022/02/21 05:40:11;;;;;;;1.20;0.20;;;;;;;;;;2107986;28;20032;-68
2022/02/21 05:41:30;;;;;;;0.30;0.30;;;;;;;;;;2079094;28;20042;-68
2022/02/21 05:42:49;;;;;;;0.43;0.30;;;;;;;;;;2065107;28;20532;-69
2022/02/21 05:44:08;;;;;;;1.30;0.45;;;;;;;;;;2065574;28;20022;-69
2022/02/21 05:45:26;;;;;;;0.43;0.22;;;;;;;;;;2064646;28;20392;-69
2022/02/21 05:46:45;;;;;;;1.77;0.13;;;;;;;;;;2066966;28;20042;-70
2022/02/21 05:48:04;;;;;;;2.95;0.43;;;;;;;;;;2067306;28;20042;-71
2022/02/21 05:49:23;;;;;;;0.80;0.45;;;;;;;;;;2066752;28;20030;-68
2022/02/21 05:50:42;;;;;;;4.63;0.93;;;;;;;;;;2066072;28;20026;-68
2022/02/21 05:52:01;;;;;;;1.95;0.30;;;;;;;;;;2066291;28;20042;-69
2022/02/21 05:53:20;;;;;;;1.23;0.50;;;;;;;;;;2069412;28;20074;-68
2022/02/21 05:54:39;;;;;;;1.40;0.32;;;;;;;;;;2066568;28;20057;-69
2022/02/21 05:55:58;;;;;;;2.63;0.38;;;;;;;;;;2069146;28;20034;-69
2022/02/21 05:57:17;;;;;;;0.80;0.30;;;;;;;;;;2065720;28;20038;-69
2022/02/21 05:58:36;;;;;;;0.50;0.22;;;;;;;;;;2066272;28;20026;-69
2022/02/21 05:59:56;;;;;;;0.20;0.20;;;;;;;;;;2066256;28;20553;-69
2022/02/21 06:01:15;;;;;;;0.40;0.28;;;;;;;;;;2065059;28;20050;-69
2022/02/21 06:02:34;;;;;;;0.63;0.30;;;;;;;;;;2065678;28;20069;-69
2022/02/21 06:03:53;;;;;;;1.50;0.30;;;;;;;;;;2066723;28;20035;-69
2022/02/21 06:05:12;;;;;;;0.38;0.20;;;;;;;;;;2065649;28;20034;-68
2022/02/21 06:06:31;;;;;;;0.30;0.20;;;;;;;;;;2066996;28;20041;-69
2022/02/21 06:07:50;;;;;;;0.20;0.20;;;;;;;;;;2065893;28;20029;-68
2022/02/21 06:09:09;;;;;;;0.52;0.20;;;;;;;;;;2066283;28;20019;-70
2022/02/21 06:10:27;;;;;;;1.38;0.38;;;;;;;;;;2066549;28;20730;-69
2022/02/21 06:11:47;;;;;;;2.50;0.40;;;;;;;;;;2067561;28;20030;-69
2022/02/21 06:13:05;;;;;;;2.15;0.30;;;;;;;;;;2066050;28;20030;-69
2022/02/21 06:14:24;;;;;;;1.85;0.77;;;;;;;;;;2067493;28;20381;-69
2022/02/21 06:15:43;;;;;;;2.33;0.60;;;;;;;;;;2064780;28;20031;-69
2022/02/21 06:17:02;;;;;;;1.20;0.20;;;;;;;;;;2064308;28;20031;-69
2022/02/21 06:18:21;;;;;;;0.73;0.20;;;;;;;;;;2066429;28;20022;-69
2022/02/21 06:19:40;;;;;;;0.93;0.30;;;;;;;;;;2067683;28;20034;-69
2022/02/21 06:20:59;;;;;;;1.33;0.05;;;;;;;;;;2066646;28;20034;-69
2022/02/21 06:22:18;;;;;;;1.55;0.45;;;;;;;;;;2066562;28;20034;-69
2022/02/21 06:23:37;;;;;;;0.57;0.20;;;;;;;;;;2065181;28;20030;-69
2022/02/21 06:24:56;;;;;;;0.40;0.30;;;;;;;;;;2065507;28;20039;-69
2022/02/21 06:26:16;;;;;;;1.48;0.25;;;;;;;;;;2065822;28;20038;-69
2022/02/21 06:27:35;;;;;;;0.85;0.38;;;;;;;;;;2067062;28;20505;-69
2022/02/21 06:28:54;;;;;;;1.88;0.28;;;;;;;;;;2067998;28;20026;-69
2022/02/21 06:30:13;;;;;;;0.15;0.15;;;;;;;;;;2062826;28;20539;-69
2022/02/21 06:31:32;;;;;;;0.47;0.25;;;;;;;;;;2066791;28;20491;-69
2022/02/21 06:32:51;;;;;;;0.98;0.20;;;;;;;;;;2067734;28;20034;-69
2022/02/21 06:34:10;;;;;;;0.13;0.10;;;;;;;;;;2065532;28;20054;-69
2022/02/21 06:35:30;;;;;;;0.25;0.25;;;;;;;;;;2065378;28;20038;-69
2022/02/21 06:36:49;;;;;;;1.00;0.28;;;;;;;;;;2065990;28;20117;-69
2022/02/21 06:38:08;;;;;;;1.05;0.50;;;;;;;;;;2066475;28;20062;-69
2022/02/21 06:39:27;;;;;;;0.30;0.13;;;;;;;;;;2066277;28;20030;-69
2022/02/21 06:40:46;;;;;;;1.67;0.30;;;;;;;;;;2065986;28;20036;-69
2022/02/21 06:42:05;;;;;;;0.75;0.22;;;;;;;;;;2068550;28;20132;-69
2022/02/21 06:43:24;;;;;;;0.20;0.20;;;;;;;;;;2065333;28;20026;-69
2022/02/21 06:44:43;;;;;;;0.40;0.20;;;;;;;;;;2066765;28;20042;-69
2022/02/21 06:46:01;;;;;;;0.40;0.25;;;;;;;;;;2069321;28;20485;-67
2022/02/21 06:47:21;;;;;;;1.25;0.22;;;;;;;;;;2064015;28;20070;-68
2022/02/21 06:48:40;;;;;;;0.82;0.40;;;;;;;;;;2066734;28;20034;-67
2022/02/21 06:49:58;;;;;;;1.13;0.30;;;;;;;;;;2064354;28;20449;-67
2022/02/21 06:51:17;;;;;;;1.55;0.40;;;;;;;;;;2065187;28;20022;-67
2022/02/21 06:52:37;;;;;;;3.22;0.30;;;;;;;;;;2064011;28;20031;-67
2022/02/21 06:53:56;;;;;;;1.83;0.30;;;;;;;;;;2067081;28;20031;-67
2022/02/21 06:55:15;;;;;;;1.95;0.30;;;;;;;;;;2064931;28;20434;-66
2022/02/21 06:56:34;;;;;;;3.30;0.20;;;;;;;;;;2064108;28;20027;-68
2022/02/21 06:57:54;;;;;;;0.90;0.22;;;;;;;;;;2063777;28;20034;-67
2022/02/21 06:59:12;;;;;;;0.75;0.22;;;;;;;;;;2068875;28;20038;-67
2022/02/21 07:00:32;;;;;;;0.68;0.30;;;;;;;;;;2068259;28;20034;-67
2022/02/21 07:01:51;;;;;;;0.90;0.30;;;;;;;;;;2066876;28;20120;-68
2022/02/21 07:03:10;;;;;;;0.47;0.20;;;;;;;;;;2069787;28;20030;-68
2022/02/21 07:04:29;;;;;;;0.40;0.30;;;;;;;;;;2068058;28;20034;-67
2022/02/21 07:05:48;;;;;;;3.92;0.50;;;;;;;;;;2066998;28;20043;-68
2022/02/21 07:07:07;;;;;;;0.50;0.30;;;;;;;;;;2076147;28;20034;-68
2022/02/21 07:08:26;;;;;;;0.47;0.30;;;;;;;;;;2068171;28;20034;-67
2022/02/21 07:09:45;;;;;;;0.90;0.35;;;;;;;;;;2066248;28;20030;-67
2022/02/21 07:11:04;;;;;;;0.70;0.20;;;;;;;;;;2067035;28;20030;-67
2022/02/21 07:12:24;;;;;;;0.75;0.43;;;;;;;;;;2067124;28;20030;-67
2022/02/21 07:13:43;;;;;;;0.88;0.40;;;;;;;;;;2067261;28;20027;-67
2022/02/21 07:15:02;;;;;;;0.32;0.30;;;;;;;;;;2068242;28;20034;-67
2022/02/21 07:16:21;;;;;;;0.52;0.35;;;;;;;;;;2068251;28;20026;-67
2022/02/21 07:17:41;;;;;;;0.38;0.38;;;;;;;;;;2067172;28;20042;-67
2022/02/21 07:19:00;;;;;;;1.38;0.47;;;;;;;;;;2067962;28;20026;-68
2022/02/21 07:20:19;;;;;;;0.95;0.30;;;;;;;;;;2068867;28;20080;-67
2022/02/21 07:21:38;;;;;;;0.82;0.25;;;;;;;;;;2069233;28;20034;-68
2022/02/21 07:22:57;;;;;;;2.72;0.30;;;;;;;;;;2067181;28;20042;-68
2022/02/21 07:24:16;;;;;;;0.73;0.20;;;;;;;;;;2067451;28;20030;-67
2022/02/21 07:25:35;;;;;;;0.70;0.30;;;;;;;;;;2066997;28;20042;-67
2022/02/21 07:26:54;;;;;;;0.55;0.40;;;;;;;;;;2069584;28;20101;-68
2022/02/21 07:28:15;;;;;;;0.60;0.40;;;;;;;;;;2067570;28;20476;-67
2022/02/21 07:29:36;;;;;;;0.68;0.43;;;;;;;;;;2067414;28;20483;-68
2022/02/21 07:30:55;;;;;;;0.90;0.30;;;;;;;;;;2067415;28;20031;-68
2022/02/21 07:32:14;;;;;;;1.08;0.30;;;;;;;;;;2067376;28;20061;-68
2022/02/21 07:33:33;;;;;;;1.67;0.50;;;;;;;;;;2066495;28;20057;-68
2022/02/21 07:34:52;;;;;;;0.55;0.28;;;;;;;;;;2067834;28;20038;-68
2022/02/21 07:36:11;;;;;;;0.65;0.50;;;;;;;;;;2067794;28;20109;-68
2022/02/21 07:37:30;;;;;;;1.50;0.40;;;;;;;;;;2067398;28;20034;-68
2022/02/21 07:38:49;;;;;;;1.17;0.30;;;;;;;;;;2067622;28;20034;-68
2022/02/21 07:40:08;;;;;;;0.95;0.32;;;;;;;;;;2067359;28;20022;-68
2022/02/21 07:41:28;;;;;;;1.58;0.60;;;;;;;;;;2067264;28;20442;-68
2022/02/21 07:42:52;;;;;;;1.10;0.40;;;;;;;;;;2068941;28;20116;-68
2022/02/21 07:44:11;;;;;;;0.68;0.28;;;;;;;;;;2063841;28;20431;-68
2022/02/21 07:45:30;;;;;;;1.52;0.40;;;;;;;;;;2068631;28;20117;-67
2022/02/21 07:46:49;;;;;;;1.52;0.30;;;;;;;;;;2068396;28;20036;-67
2022/02/21 07:48:08;;;;;;;0.75;0.70;;;;;;;;;;2066388;28;20114;-67
2022/02/21 07:49:27;;;;;;;4.38;0.47;;;;;;;;;;2067343;28;20066;-66
2022/02/21 07:50:47;;;;;;;0.60;0.30;;;;;;;;;;2068001;28;20038;-65
2022/02/21 07:52:06;;;;;;;2.72;0.30;;;;;;;;;;2067250;28;20030;-65
2022/02/21 07:53:24;;;;;;;1.30;0.50;;;;;;;;;;2067323;28;20389;-65